Terminal Aerodrome Forecast
Issued by NWS Wilmington, OH

Home | Current Version | Previous Version | Text Only | Print | Product List | Glossary On
Versions: 1 2 3 4 5 6 7 8 9 10 11 12 13 14 15 16 17 18 19 20 21 22 23 24
431
FTUS41 KILN 111131
TAFDAY
TAF
KDAY 111131Z 1112/1212 13009KT P6SM VCSH OVC050
     FM111400 16010KT P6SM OVC040
     FM112000 18012G18KT P6SM -RASN OVC035
     FM120300 21012KT 4SM -RA BR OVC015
     FM120800 24012KT 4SM BR OVC006=

USA.gov is the U.S. government's official web portal to all federal, state and local government web resources and services.